Time;durP1;ratioP1;P1;durP2;ratioP2;P2;SDS_P1;SDS_P2;PMS_P1;PMS_P2;Temp;Humidity;BMP_temperature;BMP_pressure;BME280_temperature;BME280_humidity;BME280_pressure;Samples;Min_cycle;Max_cycle;Signal;HPM_P1;HPM_P2
2023/05/10 00:00:20;;;;;;;7.93;2.10;;;;;;;11.36;70.30;99626.31;5002693;28;20096;-55
2023/05/10 00:02:47;;;;;;;3.17;1.50;;;;;;;11.29;70.23;99615.13;5003342;28;20053;-56
2023/05/10 00:05:16;;;;;;;8.52;1.63;;;;;;;11.26;70.43;99620.38;5005169;28;21346;-57
2023/05/10 00:07:44;;;;;;;3.28;1.25;;;;;;;11.19;71.63;99619.59;4999402;28;20103;-61
2023/05/10 00:10:11;;;;;;;6.43;1.98;;;;;;;11.14;71.26;99620.50;5002243;28;20409;-59
2023/05/10 00:12:38;;;;;;;4.63;1.52;;;;;;;11.10;71.05;99616.25;5003686;28;20783;-53
2023/05/10 00:15:05;;;;;;;8.90;1.77;;;;;;;11.05;71.21;99622.34;5005052;28;20078;-58
2023/05/10 00:17:32;;;;;;;5.70;1.60;;;;;;;11.01;70.74;99625.84;5005740;28;20077;-56
2023/05/10 00:19:59;;;;;;;7.88;1.60;;;;;;;10.98;70.47;99625.88;5000229;28;20050;-58
2023/05/10 00:22:26;;;;;;;8.07;1.92;;;;;;;10.94;71.92;99624.19;4999120;28;20053;-55
2023/05/10 00:24:52;;;;;;;8.60;1.30;;;;;;;10.87;71.53;99628.59;5004524;28;20491;-59
2023/05/10 00:27:19;;;;;;;6.93;1.67;;;;;;;10.86;71.75;99626.00;5002429;28;20070;-57
2023/05/10 00:29:45;;;;;;;7.70;2.05;;;;;;;10.83;71.47;99631.22;5001920;28;20078;-56
2023/05/10 00:32:13;;;;;;;4.50;1.30;;;;;;;10.78;70.79;99629.53;4998971;28;20157;-59
2023/05/10 00:34:40;;;;;;;4.50;1.60;;;;;;;10.75;70.70;99623.53;4996299;28;20080;-54
2023/05/10 00:37:07;;;;;;;6.32;1.65;;;;;;;10.69;71.47;99624.47;4998614;28;20144;-56
2023/05/10 00:39:33;;;;;;;5.25;1.50;;;;;;;10.65;71.61;99627.97;5002885;28;20111;-53
2023/05/10 00:42:00;;;;;;;5.53;1.35;;;;;;;10.63;71.40;99629.69;4999758;28;20561;-56
2023/05/10 00:44:27;;;;;;;6.43;1.52;;;;;;;10.60;71.39;99632.34;5002934;28;20042;-55
2023/05/10 00:46:54;;;;;;;6.45;1.40;;;;;;;10.56;72.09;99638.41;5008543;28;20077;-57
2023/05/10 00:49:21;;;;;;;7.13;1.75;;;;;;;10.55;71.41;99645.31;5005506;28;20057;-57
2023/05/10 00:51:48;;;;;;;7.88;1.35;;;;;;;10.51;71.81;99635.88;5004340;28;20121;-59
2023/05/10 00:54:15;;;;;;;2.85;0.90;;;;;;;10.48;71.77;99636.75;5006832;28;20655;-58
2023/05/10 00:56:48;;;;;;;7.20;1.70;;;;;;;10.45;71.75;99631.59;5010157;28;20054;-54
2023/05/10 00:59:16;;;;;;;4.45;1.25;;;;;;;10.43;71.18;99635.88;5006355;28;20107;-51
2023/05/10 01:01:45;;;;;;;9.45;1.40;;;;;;;10.40;71.68;99634.19;4990506;28;20084;-57
2023/05/10 01:04:14;;;;;;;9.95;1.73;;;;;;;10.38;71.27;99629.91;4975662;28;20057;-55
2023/05/10 01:06:41;;;;;;;6.80;1.83;;;;;;;10.35;71.96;99641.16;5003838;28;20047;-58
2023/05/10 01:09:09;;;;;;;5.43;1.27;;;;;;;10.33;72.30;99636.84;5005771;28;20100;-52
2023/05/10 01:11:38;;;;;;;7.25;1.55;;;;;;;10.32;71.69;99640.31;5001600;28;20050;-57
2023/05/10 01:14:05;;;;;;;7.65;1.50;;;;;;;10.29;72.07;99641.19;5005715;28;20112;-54
2023/05/10 01:16:36;;;;;;;5.10;1.35;;;;;;;10.28;71.68;99639.47;5003880;28;20139;-56
2023/05/10 01:19:09;;;;;;;4.72;1.73;;;;;;;10.25;72.51;99635.19;5004212;28;20069;-56
2023/05/10 01:21:46;;;;;;;4.88;1.35;;;;;;;10.21;71.63;99633.50;5004129;28;20073;-60
2023/05/10 01:33:13;;;;;;;5.53;1.63;;;;;;;10.25;72.03;99640.38;5066501;27;20412;-55
2023/05/10 01:35:45;;;;;;;7.80;1.50;;;;;;;10.22;72.20;99640.38;5058159;28;20433;-55
2023/05/10 01:44:10;;;;;;;8.68;2.58;;;;;;;10.07;72.00;99638.78;5045458;27;20405;-54
2023/05/10 01:46:38;;;;;;;6.88;2.80;;;;;;;10.06;72.61;99638.78;5008063;28;20042;-55
2023/05/10 01:49:11;;;;;;;6.65;1.55;;;;;;;10.03;72.02;99640.50;5012253;28;20800;-55
2023/05/10 01:51:44;;;;;;;6.45;2.38;;;;;;;10.00;72.23;99645.72;5013827;28;20079;-51
2023/05/10 01:54:13;;;;;;;8.02;2.90;;;;;;;9.98;72.31;99642.28;5014040;28;20494;-52
2023/05/10 01:56:41;;;;;;;6.88;2.70;;;;;;;9.94;72.23;99643.19;5013305;28;20070;-54
2023/05/10 01:59:16;;;;;;;9.00;2.47;;;;;;;9.91;71.58;99640.59;5011949;28;20057;-52
2023/05/10 02:01:45;;;;;;;4.93;2.50;;;;;;;9.90;72.14;99650.09;5014629;28;20494;-53
2023/05/10 02:04:15;;;;;;;6.15;3.17;;;;;;;9.89;72.20;99644.91;5013134;28;20140;-52
2023/05/10 02:06:43;;;;;;;;;;;;;;;9.71;72.79;99643.31;5016541;28;20092;-55
2023/05/10 02:09:11;;;;;;;8.98;2.80;;;;;;;9.75;72.25;99645.88;5011328;28;19921;-49
2023/05/10 02:11:39;;;;;;;6.95;2.25;;;;;;;9.76;71.87;99652.75;5011821;28;20046;-58
2023/05/10 02:14:09;;;;;;;9.27;1.67;;;;;;;9.73;71.99;99647.59;5013835;28;20717;-56
2023/05/10 02:16:37;;;;;;;11.07;2.53;;;;;;;9.71;71.81;99648.47;5009728;28;20096;-53
2023/05/10 02:19:05;;;;;;;6.75;2.58;;;;;;;9.69;72.12;99645.06;5014913;28;20058;-55
2023/05/10 02:21:33;;;;;;;7.30;2.63;;;;;;;9.66;71.97;99651.09;5011788;28;20115;-56
2023/05/10 02:24:02;;;;;;;10.02;3.15;;;;;;;9.64;72.03;99653.69;5012636;28;20076;-53
2023/05/10 02:26:30;;;;;;;4.90;2.45;;;;;;;9.62;71.84;99659.72;5011188;28;20073;-54
2023/05/10 02:28:58;;;;;;;10.93;3.63;;;;;;;9.60;72.50;99666.66;5016382;28;20042;-52
2023/05/10 02:31:26;;;;;;;6.90;3.33;;;;;;;9.57;71.96;99662.34;5016796;28;20053;-52
2023/05/10 02:33:54;;;;;;;6.63;2.67;;;;;;;9.55;72.57;99669.25;5013879;28;20038;-55
2023/05/10 02:36:22;;;;;;;6.18;3.45;;;;;;;9.51;72.09;99660.66;5013484;28;20050;-51
2023/05/10 02:38:51;;;;;;;10.57;2.70;;;;;;;9.47;72.13;99671.88;5016080;28;20084;-48
2023/05/10 02:41:21;;;;;;;8.25;2.63;;;;;;;9.43;71.92;99669.31;5016023;28;20567;-56
2023/05/10 02:43:51;;;;;;;5.50;3.55;;;;;;;9.38;72.12;99674.47;5015790;28;20096;-55
2023/05/10 02:46:18;;;;;;;9.13;3.65;;;;;;;9.34;71.92;99670.19;5018830;28;20494;-57
2023/05/10 02:48:45;;;;;;;10.68;3.20;;;;;;;9.33;71.99;99673.66;5018490;28;20057;-54
2023/05/10 02:51:17;;;;;;;8.75;3.10;;;;;;;9.29;72.26;99662.44;5012037;28;20112;-55
2023/05/10 02:53:46;;;;;;;6.40;3.25;;;;;;;9.28;72.78;99675.41;5011141;28;20502;-55
2023/05/10 02:56:20;;;;;;;7.00;2.80;;;;;;;9.23;72.60;99673.66;5002405;28;20061;-54
2023/05/10 02:58:47;;;;;;;6.10;3.25;;;;;;;9.18;72.83;99665.09;4993591;28;20093;-53
2023/05/10 03:01:13;;;;;;;7.63;3.08;;;;;;;9.16;72.21;99664.25;5003533;28;20555;-54
2023/05/10 03:03:40;;;;;;;9.70;2.53;;;;;;;9.12;72.31;99667.69;5002656;28;20413;-58
2023/05/10 03:06:07;;;;;;;9.68;3.45;;;;;;;9.10;72.27;99664.25;5001351;28;20042;-55
2023/05/10 03:08:33;;;;;;;8.32;2.60;;;;;;;9.09;72.22;99665.13;4998379;28;20139;-57
2023/05/10 03:11:24;;;;;;;7.53;3.08;;;;;;;9.02;72.24;99671.16;5001260;28;20536;-54
2023/05/10 03:14:07;;;;;;;9.48;3.47;;;;;;;9.03;71.67;99675.47;4999869;28;20054;-54
2023/05/10 03:16:46;;;;;;;10.18;3.28;;;;;;;8.99;71.69;99674.63;4993714;28;20065;-53
2023/05/10 03:19:22;;;;;;;7.05;2.83;;;;;;;8.98;72.25;99673.75;5007745;28;20129;-56
2023/05/10 03:21:52;;;;;;;8.40;3.03;;;;;;;8.96;72.46;99675.50;4996795;28;20078;-53
2023/05/10 03:24:21;;;;;;;;;;;;;;;8.80;72.22;99673.78;4995105;28;20081;-55
2023/05/10 03:26:49;;;;;;;8.55;3.25;;;;;;;8.87;71.90;99675.50;5003565;28;19995;-51
2023/05/10 03:29:17;;;;;;;7.68;3.47;;;;;;;8.88;71.79;99677.19;5001787;28;20042;-53
2023/05/10 03:31:44;;;;;;;6.50;3.60;;;;;;;8.86;72.07;99673.78;4997694;28;20081;-53
2023/05/10 03:34:11;;;;;;;11.23;3.80;;;;;;;8.83;71.96;99674.66;4996148;28;20078;-57
2023/05/10 03:36:37;;;;;;;8.73;3.05;;;;;;;8.80;72.21;99669.47;4999142;28;20061;-57
2023/05/10 03:39:04;;;;;;;10.70;2.00;;;;;;;8.79;72.03;99666.91;4999224;28;20582;-57
2023/05/10 03:41:30;;;;;;;12.82;4.10;;;;;;;8.76;72.25;99677.22;4998788;28;20062;-56
2023/05/10 03:43:57;;;;;;;12.65;3.13;;;;;;;8.73;72.65;99668.63;4995889;28;20153;-51
2023/05/10 03:46:24;;;;;;;11.20;3.83;;;;;;;8.71;72.52;99667.75;4998815;28;20796;-51
2023/05/10 03:48:50;;;;;;;8.43;3.70;;;;;;;8.70;72.37;99672.94;5004936;28;20100;-58
2023/05/10 03:51:17;;;;;;;7.72;3.33;;;;;;;8.67;72.14;99673.78;5002741;28;20137;-53
2023/05/10 03:53:43;;;;;;;9.63;4.25;;;;;;;8.64;72.79;99671.22;5000163;28;20102;-55
2023/05/10 03:56:10;;;;;;;8.88;2.25;;;;;;;8.64;73.08;99673.78;4996599;28;20413;-54
2023/05/10 03:58:36;;;;;;;11.73;4.25;;;;;;;8.61;72.41;99668.63;4998717;28;20198;-53
2023/05/10 04:01:03;;;;;;;8.65;2.80;;;;;;;8.60;73.21;99672.06;4994441;28;20947;-53
2023/05/10 04:03:30;;;;;;;11.30;4.63;;;;;;;8.59;72.92;99670.38;5002375;28;20048;-53
2023/05/10 04:06:01;;;;;;;7.68;3.70;;;;;;;8.59;73.09;99681.56;4997393;28;20042;-54
2023/05/10 04:08:28;;;;;;;11.10;4.25;;;;;;;8.58;73.05;99678.97;4997417;28;20104;-51
2023/05/10 04:11:05;;;;;;;8.93;2.60;;;;;;;8.55;73.57;99676.41;4995846;28;20422;-57
2023/05/10 04:13:32;;;;;;;12.68;4.25;;;;;;;8.55;73.80;99681.56;4995438;28;20047;-52
2023/05/10 04:15:59;;;;;;;12.98;3.92;;;;;;;8.53;74.25;99671.22;4999530;28;20092;-52
2023/05/10 04:18:26;;;;;;;9.25;4.28;;;;;;;8.49;73.71;99685.81;4999829;28;20139;-56
2023/05/10 04:20:52;;;;;;;8.57;3.38;;;;;;;8.53;74.11;99676.38;4998485;28;20142;-52
2023/05/10 04:23:19;;;;;;;10.68;3.88;;;;;;;8.51;74.11;99692.72;5005081;28;20084;-51
2023/05/10 04:25:45;;;;;;;9.27;3.90;;;;;;;8.51;74.68;99684.97;4996558;28;20100;-54
2023/05/10 04:28:12;;;;;;;11.40;4.57;;;;;;;8.49;74.45;99688.38;4995962;28;20103;-53
2023/05/10 04:30:40;;;;;;;10.13;3.88;;;;;;;8.48;74.94;99688.41;4996837;28;20050;-57
2023/05/10 04:33:07;;;;;;;6.75;3.38;;;;;;;8.52;74.32;99690.13;4996736;28;20141;-51
2023/05/10 04:35:34;;;;;;;10.80;3.78;;;;;;;8.54;75.03;99685.00;4997607;28;20075;-58
2023/05/10 04:38:01;;;;;;;8.43;3.38;;;;;;;8.53;74.47;99690.97;4997060;28;20077;-54
2023/05/10 04:40:27;;;;;;;7.85;3.88;;;;;;;8.52;75.37;99689.25;4996367;28;20237;-56
2023/05/10 04:42:54;;;;;;;9.25;3.88;;;;;;;8.55;75.10;99694.47;4997298;28;20137;-51
2023/05/10 04:45:21;;;;;;;8.88;4.25;;;;;;;8.55;75.66;99695.31;4996060;28;20104;-57
2023/05/10 04:47:47;;;;;;;10.60;4.03;;;;;;;8.56;75.14;99691.88;4999228;28;20065;-53
2023/05/10 04:50:14;;;;;;;11.85;4.45;;;;;;;8.58;74.74;99697.06;4999624;28;20050;-56
2023/05/10 04:52:41;;;;;;;9.38;4.40;;;;;;;8.57;75.63;99697.88;4997975;28;20133;-58
2023/05/10 04:55:09;;;;;;;8.27;3.70;;;;;;;8.57;75.02;99697.88;4993378;28;20632;-54
2023/05/10 04:57:36;;;;;;;11.70;4.72;;;;;;;8.59;75.26;99702.22;4995673;28;20049;-53
2023/05/10 05:00:02;;;;;;;14.00;3.97;;;;;;;8.60;74.63;99709.09;4992381;28;20100;-57
2023/05/10 05:02:30;;;;;;;10.80;4.25;;;;;;;8.63;74.82;99707.34;4998297;28;20058;-51
2023/05/10 05:04:57;;;;;;;15.32;4.38;;;;;;;8.64;74.55;99709.94;4997317;28;20046;-56
2023/05/10 05:07:24;;;;;;;9.38;4.82;;;;;;;8.66;75.18;99709.94;4999296;28;20050;-53
2023/05/10 05:09:51;;;;;;;7.82;2.75;;;;;;;8.66;74.80;99717.69;5001139;28;20437;-52
2023/05/10 05:12:17;;;;;;;12.52;4.25;;;;;;;8.68;74.50;99716.81;4998821;28;20084;-53
2023/05/10 05:14:44;;;;;;;11.23;4.53;;;;;;;8.70;74.72;99720.28;4996208;28;20070;-58
2023/05/10 05:17:10;;;;;;;9.85;4.88;;;;;;;8.73;74.59;99722.88;5001877;28;20135;-55
2023/05/10 05:19:37;;;;;;;6.72;3.70;;;;;;;8.80;75.32;99726.28;4999284;28;20074;-53
2023/05/10 05:22:06;;;;;;;11.27;4.75;;;;;;;8.87;74.93;99728.00;4999956;28;20054;-52
2023/05/10 05:24:37;;;;;;;9.52;4.13;;;;;;;8.94;74.84;99728.84;4995126;28;20131;-57
2023/05/10 05:27:05;;;;;;;10.05;4.85;;;;;;;9.02;75.07;99731.41;4997991;28;20116;-54
2023/05/10 05:29:32;;;;;;;10.02;4.53;;;;;;;9.11;75.00;99731.41;4997031;28;20084;-57
2023/05/10 05:31:58;;;;;;;8.68;3.75;;;;;;;9.20;75.55;99740.88;4995418;28;20517;-56
2023/05/10 05:34:25;;;;;;;7.25;3.58;;;;;;;9.27;75.59;99733.97;5000172;28;20054;-57
2023/05/10 05:36:52;;;;;;;7.20;3.67;;;;;;;9.37;75.48;99733.09;4996015;28;20050;-52
2023/05/10 05:39:18;;;;;;;6.10;2.25;;;;;;;9.49;75.51;99737.34;4996910;28;20172;-53
2023/05/10 05:41:46;;;;;;;6.05;3.50;;;;;;;9.62;75.26;99742.47;4989661;28;20780;-57
2023/05/10 05:44:13;;;;;;;6.75;4.25;;;;;;;9.77;75.48;99742.41;5000881;28;20140;-53
2023/05/10 05:46:39;;;;;;;6.13;3.92;;;;;;;9.96;76.45;99750.09;5000278;28;20104;-55
2023/05/10 05:49:06;;;;;;;7.57;3.55;;;;;;;10.13;76.41;99754.31;5001171;28;20054;-51
2023/05/10 05:51:32;;;;;;;6.97;3.97;;;;;;;10.32;75.73;99756.78;4999667;28;20108;-56
2023/05/10 05:53:59;;;;;;;8.50;3.83;;;;;;;10.50;76.33;99756.69;5005202;28;20042;-54
2023/05/10 05:56:25;;;;;;;7.18;3.92;;;;;;;10.69;76.51;99753.97;5003754;28;20096;-50
2023/05/10 05:58:52;;;;;;;6.80;3.42;;;;;;;10.90;76.63;99758.13;4993126;28;20046;-56
2023/05/10 06:01:19;;;;;;;4.75;3.20;;;;;;;11.09;76.15;99764.88;4993042;28;20152;-51
2023/05/10 06:03:45;;;;;;;6.75;1.65;;;;;;;11.26;74.92;99759.50;4997238;28;20407;-54
2023/05/10 06:06:12;;;;;;;4.82;3.38;;;;;;;11.40;75.65;99762.84;4998226;28;21080;-55
2023/05/10 06:08:39;;;;;;;6.43;3.95;;;;;;;11.47;75.13;99766.22;4987661;28;20136;-57
2023/05/10 06:11:05;;;;;;;6.38;3.15;;;;;;;11.43;74.42;99767.13;4996240;28;20050;-51
2023/05/10 06:13:33;;;;;;;7.38;4.25;;;;;;;11.38;73.33;99771.50;5000526;28;20078;-58
2023/05/10 06:16:00;;;;;;;5.68;3.50;;;;;;;11.35;73.62;99766.34;5001899;28;20054;-54
2023/05/10 06:18:26;;;;;;;5.30;3.20;;;;;;;11.35;73.55;99774.13;4991874;28;20101;-56
2023/05/10 06:20:53;;;;;;;7.07;3.90;;;;;;;11.45;73.95;99770.53;4989438;28;20073;-55
2023/05/10 06:23:19;;;;;;;11.00;4.20;;;;;;;11.74;74.55;99776.28;4999736;28;20505;-52
2023/05/10 06:25:46;;;;;;;8.48;3.75;;;;;;;12.04;74.58;99777.66;4991544;28;20491;-56
2023/05/10 06:28:12;;;;;;;6.18;3.13;;;;;;;12.38;74.62;99783.25;4979884;28;20133;-52
2023/05/10 06:30:39;;;;;;;6.55;3.75;;;;;;;12.71;74.16;99786.25;4986636;28;20050;-55
2023/05/10 06:33:06;;;;;;;5.40;3.22;;;;;;;13.01;73.36;99781.44;4995493;28;20410;-51
2023/05/10 06:35:33;;;;;;;7.18;3.97;;;;;;;13.29;73.31;99788.75;5001187;28;20046;-54
2023/05/10 06:37:59;;;;;;;9.05;3.88;;;;;;;13.55;73.27;99790.03;5002505;28;20053;-57
2023/05/10 06:40:26;;;;;;;5.95;3.35;;;;;;;13.85;72.59;99790.28;5005051;28;20045;-55
2023/05/10 06:42:53;;;;;;;6.65;4.20;;;;;;;14.16;72.99;99800.97;5001540;28;20049;-54
2023/05/10 06:45:19;;;;;;;5.43;3.53;;;;;;;14.46;72.68;99795.97;5003185;28;20149;-53
2023/05/10 06:47:46;;;;;;;6.60;3.80;;;;;;;14.78;72.93;99802.19;5000706;28;20049;-55
2023/05/10 06:50:13;;;;;;;7.22;4.18;;;;;;;15.13;72.00;99795.25;5001279;28;20053;-55
2023/05/10 06:52:40;;;;;;;6.65;4.28;;;;;;;15.45;71.92;99799.66;5001952;28;20108;-53
2023/05/10 06:55:08;;;;;;;5.55;3.63;;;;;;;15.73;71.20;99793.66;5005683;28;20123;-58
2023/05/10 06:57:34;;;;;;;7.35;3.50;;;;;;;16.04;70.77;99800.63;4996838;28;20057;-56
2023/05/10 07:00:03;;;;;;;6.72;3.90;;;;;;;16.34;70.51;99800.63;4993764;28;20057;-56
2023/05/10 07:02:31;;;;;;;6.50;3.83;;;;;;;16.69;70.63;99806.50;5000195;28;20053;-55
2023/05/10 07:04:58;;;;;;;6.88;3.67;;;;;;;16.98;69.42;99795.16;5002100;28;20041;-59
2023/05/10 07:07:28;;;;;;;6.03;2.70;;;;;;;17.27;68.42;99795.94;5001466;28;20053;-54
2023/05/10 07:09:56;;;;;;;5.80;2.47;;;;;;;17.53;67.81;99802.03;5000004;28;20132;-58
2023/05/10 07:12:23;;;;;;;3.53;1.67;;;;;;;17.69;66.99;99795.31;5002882;28;21937;-58
2023/05/10 07:14:50;;;;;;;6.13;2.78;;;;;;;17.84;66.20;99800.91;5001218;28;20461;-60
2023/05/10 07:17:17;;;;;;;6.18;3.03;;;;;;;18.02;65.40;99801.13;4998512;28;20242;-59
2023/05/10 07:19:44;;;;;;;4.63;3.60;;;;;;;18.19;64.50;99804.00;5001731;28;20046;-59
2023/05/10 07:22:11;;;;;;;5.03;3.05;;;;;;;18.34;64.09;99801.69;5000148;28;20054;-58
2023/05/10 07:24:38;;;;;;;3.85;2.00;;;;;;;18.57;64.39;99811.25;4997962;28;20644;-56
2023/05/10 07:27:05;;;;;;;5.70;2.85;;;;;;;18.81;63.52;99805.09;4999518;28;20086;-54
2023/05/10 07:29:33;;;;;;;4.47;2.22;;;;;;;18.97;61.53;99808.78;4999301;28;20046;-57
2023/05/10 07:32:02;;;;;;;7.03;3.30;;;;;;;19.08;61.72;99802.28;5004377;28;20454;-57
2023/05/10 07:34:30;;;;;;;7.25;3.35;;;;;;;19.29;61.41;99807.50;5003168;28;20555;-58
2023/05/10 07:36:59;;;;;;;6.63;3.15;;;;;;;19.52;61.35;99810.00;5004118;28;20100;-57
2023/05/10 07:39:27;;;;;;;5.57;2.78;;;;;;;19.77;60.91;99803.66;5000450;28;20050;-57
2023/05/10 07:41:55;;;;;;;4.82;2.67;;;;;;;19.98;59.85;99806.22;4997533;28;20046;-58
2023/05/10 07:44:22;;;;;;;5.38;2.55;;;;;;;20.16;59.33;99804.53;5003813;28;20137;-60
2023/05/10 07:46:50;;;;;;;6.28;3.65;;;;;;;20.40;59.00;99795.56;5001184;28;20049;-58
2023/05/10 07:49:16;;;;;;;5.60;2.92;;;;;;;20.60;59.18;99796.38;5004620;28;20141;-60
2023/05/10 07:51:43;;;;;;;4.97;3.65;;;;;;;20.85;58.79;99795.16;4998841;28;20108;-57
2023/05/10 07:54:10;;;;;;;3.63;2.70;;;;;;;21.09;57.77;99797.50;5007395;28;20136;-60
2023/05/10 07:56:37;;;;;;;5.03;2.90;;;;;;;21.35;57.61;99797.97;5000913;28;20053;-58
2023/05/10 07:59:06;;;;;;;4.00;3.45;;;;;;;21.62;56.96;99797.44;5001412;28;20104;-58
2023/05/10 08:01:34;;;;;;;5.82;2.75;;;;;;;21.87;56.43;99798.78;5002814;28;20050;-58
2023/05/10 08:04:02;;;;;;;5.45;3.35;;;;;;;22.13;56.31;99801.78;4993872;28;20057;-63
2023/05/10 08:06:30;;;;;;;5.18;3.05;;;;;;;22.36;56.09;99804.94;4999344;28;20050;-59
2023/05/10 08:08:57;;;;;;;3.70;2.40;;;;;;;22.56;55.20;99804.69;4993767;28;20133;-54
2023/05/10 08:11:24;;;;;;;14.13;4.05;;;;;;;22.75;54.64;99795.69;4999794;28;20046;-53
2023/05/10 08:13:51;;;;;;;5.72;2.70;;;;;;;22.93;54.63;99803.50;4995899;28;20045;-61
2023/05/10 08:16:17;;;;;;;7.53;3.10;;;;;;;23.10;53.86;99800.69;4995854;28;20046;-60
2023/05/10 08:18:46;;;;;;;6.50;3.10;;;;;;;23.26;53.37;99804.25;4999392;28;20058;-63
2023/05/10 08:21:14;;;;;;;7.82;3.58;;;;;;;23.34;52.11;99797.53;5002624;28;20115;-63
2023/05/10 08:23:41;;;;;;;3.05;1.45;;;;;;;23.48;52.01;99806.47;4994264;28;20430;-60
2023/05/10 08:26:07;;;;;;;6.55;2.88;;;;;;;23.65;51.54;99805.44;4985481;28;20046;-56
2023/05/10 08:28:34;;;;;;;6.47;2.72;;;;;;;23.84;52.12;99810.41;4985021;28;20094;-59
2023/05/10 08:31:01;;;;;;;4.85;3.25;;;;;;;24.03;51.70;99814.53;4985454;28;20132;-60
2023/05/10 08:33:28;;;;;;;5.75;3.03;;;;;;;24.21;51.27;99809.06;4983440;28;20046;-63
2023/05/10 08:35:54;;;;;;;5.57;2.72;;;;;;;24.38;51.22;99818.53;4993803;28;20054;-59
2023/05/10 08:38:21;;;;;;;5.38;2.05;;;;;;;24.59;51.76;99816.28;5003159;28;20386;-58
2023/05/10 08:40:49;;;;;;;3.65;2.58;;;;;;;24.63;49.21;99812.50;5000390;28;20104;-63
2023/05/10 08:43:15;;;;;;;4.32;3.10;;;;;;;24.49;48.91;99817.88;4998077;28;20108;-62
2023/05/10 08:45:46;;;;;;;3.92;2.88;;;;;;;24.44;49.74;99812.88;5002568;28;20660;-58
2023/05/10 08:48:14;;;;;;;6.88;3.15;;;;;;;24.61;49.77;99817.06;4995108;28;20049;-60
2023/05/10 08:50:42;;;;;;;5.28;2.92;;;;;;;24.86;49.67;99815.44;4990579;28;20140;-63
2023/05/10 08:53:11;;;;;;;5.80;2.97;;;;;;;25.11;49.58;99818.25;4999582;28;20053;-61
2023/05/10 08:55:39;;;;;;;4.72;3.28;;;;;;;25.33;49.16;99817.63;4997588;28;20112;-63
2023/05/10 08:58:07;;;;;;;4.60;2.67;;;;;;;25.46;48.77;99817.63;4998043;28;20050;-60
2023/05/10 09:00:34;;;;;;;4.18;2.50;;;;;;;25.53;47.39;99810.13;4996268;28;20513;-63
2023/05/10 09:03:03;;;;;;;4.35;1.10;;;;;;;25.49;46.85;99819.22;4993679;28;20662;-60
2023/05/10 09:05:30;;;;;;;3.50;2.58;;;;;;;25.35;46.52;99810.44;5001068;28;20203;-56
2023/05/10 09:07:58;;;;;;;4.60;2.80;;;;;;;25.32;46.42;99813.28;5000556;28;20041;-54
2023/05/10 09:10:27;;;;;;;5.47;2.55;;;;;;;25.35;47.21;99823.69;4996058;28;20048;-61
2023/05/10 09:12:56;;;;;;;6.00;2.75;;;;;;;25.40;46.83;99816.25;5004220;28;20057;-61
2023/05/10 09:15:25;;;;;;;5.38;2.70;;;;;;;25.32;46.21;99821.25;4981411;28;20042;-59
2023/05/10 09:17:52;;;;;;;4.93;3.05;;;;;;;25.30;46.71;99815.22;4983118;28;20124;-61
2023/05/10 09:20:19;;;;;;;3.22;2.92;;;;;;;25.54;46.80;99822.44;4979680;28;20081;-59
2023/05/10 09:22:45;;;;;;;5.38;2.83;;;;;;;25.66;46.47;99821.59;4980249;28;20542;-61
2023/05/10 09:25:14;;;;;;;4.07;2.15;;;;;;;25.66;45.06;99820.72;4982770;28;20045;-65
2023/05/10 09:27:45;;;;;;;;;;;;;;;25.60;45.42;99819.34;4979007;28;20142;-64
2023/05/10 09:30:16;;;;;;;5.50;2.95;;;;;;;25.67;45.16;99823.28;4984269;28;20016;-61
2023/05/10 09:32:47;;;;;;;6.38;2.65;;;;;;;25.62;45.27;99820.13;4981724;28;20133;-65
2023/05/10 09:35:17;;;;;;;5.40;3.60;;;;;;;25.72;46.33;99827.41;4987847;28;20046;-67
2023/05/10 09:37:48;;;;;;;5.88;2.65;;;;;;;25.77;44.93;99820.00;4987821;28;20050;-60
2023/05/10 09:40:17;;;;;;;3.72;2.35;;;;;;;25.87;44.95;99822.84;4997895;28;20042;-57
2023/05/10 09:45:30;;;;;;;2.90;1.90;;;;;;;25.98;44.86;99814.97;5031233;28;20410;-61
2023/05/10 09:47:58;;;;;;;;;;;;;;;25.86;44.63;99815.81;5019628;28;20045;-60
2023/05/10 09:50:26;;;;;;;4.15;1.10;;;;;;;25.85;44.28;99815.00;5018806;28;19929;-59
2023/05/10 09:52:58;;;;;;;4.20;1.67;;;;;;;25.79;44.75;99818.06;5012906;28;20103;-60
2023/05/10 09:55:39;;;;;;;4.18;1.58;;;;;;;25.66;43.52;99816.28;5021333;28;20543;-64
2023/05/10 09:58:09;;;;;;;6.57;1.33;;;;;;;25.42;43.74;99814.38;5017389;28;20046;-62
2023/05/10 10:00:38;;;;;;;4.78;1.23;;;;;;;25.08;43.85;99811.38;5016224;28;20049;-63
2023/05/10 10:03:11;;;;;;;5.60;2.92;;;;;;;24.75;44.66;99825.88;5022591;28;20526;-65
2023/05/10 10:05:41;;;;;;;4.78;1.30;;;;;;;24.41;44.85;99820.16;5015430;28;20088;-64
2023/05/10 10:08:07;;;;;;;;;;;;;;;23.84;45.68;99818.34;5019009;28;20123;-63
2023/05/10 10:10:34;;;;;;;3.35;1.00;;;;;;;23.76;45.76;99812.69;5022784;28;20474;-64
2023/05/10 10:13:01;;;;;;;3.47;1.30;;;;;;;23.61;46.81;99825.06;5012236;28;20057;-61
2023/05/10 10:15:28;;;;;;;6.53;1.67;;;;;;;23.40;46.71;99821.94;5018116;28;20041;-62
2023/05/10 10:17:55;;;;;;;6.63;2.70;;;;;;;23.15;46.45;99826.00;5022272;28;20108;-65
2023/05/10 10:20:23;;;;;;;4.10;1.52;;;;;;;22.94;47.30;99818.41;5017510;28;20045;-55
2023/05/10 10:22:52;;;;;;;3.05;1.15;;;;;;;22.68;46.51;99818.13;5018258;28;20054;-60
2023/05/10 10:25:21;;;;;;;3.90;2.17;;;;;;;22.55;47.75;99826.69;5021399;28;20363;-63
2023/05/10 10:30:51;;;;;;;3.80;1.30;;;;;;;21.92;48.22;99834.50;5049054;27;20952;-52
2023/05/10 10:35:58;;;;;;;6.20;2.72;;;;;;;21.58;49.67;99828.34;5024294;28;20395;-54
2023/05/10 10:38:25;;;;;;;5.07;3.25;;;;;;;21.53;50.43;99828.63;4985099;28;20089;-57
2023/05/10 10:41:27;;;;;;;4.53;2.63;;;;;;;21.39;50.60;99820.56;4985379;28;20101;-57
2023/05/10 10:44:33;;;;;;;5.10;1.17;;;;;;;21.42;50.67;99820.44;4989899;28;20494;-57
2023/05/10 10:52:28;;;;;;;4.82;1.85;;;;;;;21.66;51.23;99817.44;5099409;27;20374;-57
2023/05/10 11:05:36;;;;;;;3.03;1.13;;;;;;;22.38;50.36;99821.50;5048954;27;20398;-53
2023/05/10 11:08:09;;;;;;;2.80;1.35;;;;;;;22.46;50.96;99821.97;5003381;28;20494;-57
2023/05/10 11:10:37;;;;;;;2.47;1.40;;;;;;;22.68;50.42;99810.19;5001587;28;20062;-58
2023/05/10 11:13:07;;;;;;;4.47;1.42;;;;;;;22.82;50.14;99806.75;5003342;28;20494;-60
2023/05/10 11:15:39;;;;;;;3.90;2.05;;;;;;;22.85;49.47;99811.84;4995654;28;20050;-59
2023/05/10 11:18:27;;;;;;;5.03;1.70;;;;;;;22.79;50.08;99807.78;5003235;28;20141;-54
2023/05/10 11:20:59;;;;;;;1.90;1.30;;;;;;;22.99;51.47;99808.41;5034993;28;20050;-61
2023/05/10 11:23:32;;;;;;;2.65;1.25;;;;;;;23.13;50.42;99804.94;5011252;28;20058;-60
2023/05/10 11:26:01;;;;;;;3.75;1.42;;;;;;;23.08;49.50;99807.88;5013890;28;20073;-63
2023/05/10 11:28:28;;;;;;;2.97;1.30;;;;;;;23.13;50.29;99804.13;5030385;28;20095;-60
2023/05/10 11:30:55;;;;;;;2.70;1.48;;;;;;;23.18;49.80;99802.91;5025317;28;20194;-54
2023/05/10 11:33:22;;;;;;;2.90;1.15;;;;;;;23.31;49.43;99797.75;5030765;28;20128;-60
2023/05/10 11:35:48;;;;;;;2.53;1.33;;;;;;;23.57;49.27;99799.75;5025460;28;20066;-62
2023/05/10 11:38:15;;;;;;;5.55;1.73;;;;;;;23.70;49.13;99799.81;5028340;28;20084;-62
2023/05/10 11:40:43;;;;;;;6.80;1.15;;;;;;;23.52;48.42;99799.19;5026044;28;20097;-59
2023/05/10 11:43:11;;;;;;;2.75;1.35;;;;;;;23.36;48.77;99794.81;5026055;28;20072;-57
2023/05/10 11:45:39;;;;;;;2.38;1.05;;;;;;;23.31;48.23;99794.22;5015934;28;20472;-60
2023/05/10 11:48:07;;;;;;;1.50;0.70;;;;;;;23.25;48.21;99798.09;5024233;28;20563;-58
2023/05/10 11:50:34;;;;;;;4.28;3.97;;;;;;;23.29;47.04;99786.41;5025976;28;20398;-52
2023/05/10 11:53:01;;;;;;;2.40;0.80;;;;;;;23.22;47.22;99785.06;5021220;28;20045;-55
2023/05/10 11:55:29;;;;;;;3.42;0.80;;;;;;;23.16;47.97;99785.41;5025489;28;20644;-61
2023/05/10 11:58:00;;;;;;;1.70;1.00;;;;;;;23.17;46.50;99779.22;5031184;28;20122;-56
2023/05/10 12:00:27;;;;;;;2.70;0.80;;;;;;;23.18;47.17;99783.56;5021946;28;20083;-54
2023/05/10 12:02:54;;;;;;;5.32;2.38;;;;;;;23.12;46.69;99776.84;5023973;28;20042;-55
2023/05/10 12:05:21;;;;;;;3.67;1.30;;;;;;;23.03;47.09;99786.16;5025335;28;20053;-57
2023/05/10 12:07:48;;;;;;;4.22;2.03;;;;;;;22.94;46.85;99784.06;5026008;28;20041;-55
2023/05/10 12:10:17;;;;;;;2.58;1.13;;;;;;;22.81;47.64;99784.81;5024752;28;20555;-56
2023/05/10 12:12:47;;;;;;;3.63;2.28;;;;;;;22.68;47.12;99783.81;5025447;28;20446;-57
2023/05/10 12:17:51;;;;;;;3.05;1.30;;;;;;;22.43;48.11;99790.47;5096735;27;20532;-56
2023/05/10 12:20:21;;;;;;;2.63;0.82;;;;;;;22.34;48.04;99790.06;5063962;28;20075;-54
2023/05/10 12:22:52;;;;;;;1.58;1.30;;;;;;;22.25;48.52;99787.91;5042521;28;20065;-65